sensor_id;sensor_type;location;lat;lon;timestamp;pressure;altitude;pressure_sealevel;temperature;humidity
8699;BME280;4386;51.236;6.742;2023-02-03T00:00:38;102096.25;;;10.41;84.54
8699;BME280;4386;51.236;6.742;2023-02-03T00:01:39;102101.47;;;10.43;84.33
8699;BME280;4386;51.236;6.742;2023-02-03T00:02:54;102090.88;;;10.43;84.37
8699;BME280;4386;51.236;6.742;2023-02-03T00:03:56;102097.88;;;10.44;84.38
8699;BME280;4386;51.236;6.742;2023-02-03T00:04:59;102098.84;;;10.43;84.46
8699;BME280;4386;51.236;6.742;2023-02-03T00:06:22;102097.03;;;10.43;84.35
8699;BME280;4386;51.236;6.742;2023-02-03T00:07:25;102092.56;;;10.44;84.23
8699;BME280;4386;51.236;6.742;2023-02-03T00:08:27;102085.47;;;10.44;84.49
8699;BME280;4386;51.236;6.742;2023-02-03T00:09:30;102081.97;;;10.44;84.17
8699;BME280;4386;51.236;6.742;2023-02-03T00:10:32;102074.88;;;10.44;84.16
8699;BME280;4386;51.236;6.742;2023-02-03T00:11:35;102076.59;;;10.45;84.20
8699;BME280;4386;51.236;6.742;2023-02-03T00:12:37;102077.47;;;10.46;84.11
8699;BME280;4386;51.236;6.742;2023-02-03T00:13:39;102074.81;;;10.46;84.12
8699;BME280;4386;51.236;6.742;2023-02-03T00:14:41;102075.66;;;10.47;84.09
8699;BME280;4386;51.236;6.742;2023-02-03T00:15:43;102075.56;;;10.48;84.02
8699;BME280;4386;51.236;6.742;2023-02-03T00:16:45;102062.41;;;10.47;84.01
8699;BME280;4386;51.236;6.742;2023-02-03T00:17:47;102070.38;;;10.47;84.08
8699;BME280;4386;51.236;6.742;2023-02-03T00:18:49;102061.44;;;10.48;84.13
8699;BME280;4386;51.236;6.742;2023-02-03T00:19:52;102062.31;;;10.48;83.93
8699;BME280;4386;51.236;6.742;2023-02-03T00:20:54;102066.69;;;10.49;83.95
8699;BME280;4386;51.236;6.742;2023-02-03T00:21:57;102069.34;;;10.49;84.08
8699;BME280;4386;51.236;6.742;2023-02-03T00:23:03;102068.41;;;10.50;83.93
8699;BME280;4386;51.236;6.742;2023-02-03T00:24:06;102065.75;;;10.50;83.97
8699;BME280;4386;51.236;6.742;2023-02-03T00:25:09;102068.41;;;10.50;84.00
8699;BME280;4386;51.236;6.742;2023-02-03T00:26:12;102070.09;;;10.51;83.97
8699;BME280;4386;51.236;6.742;2023-02-03T00:27:15;102067.44;;;10.51;83.86
8699;BME280;4386;51.236;6.742;2023-02-03T00:28:17;102066.56;;;10.51;83.68
8699;BME280;4386;51.236;6.742;2023-02-03T00:29:19;102066.56;;;10.51;83.53
8699;BME280;4386;51.236;6.742;2023-02-03T00:30:27;102078.03;;;10.51;83.84
8699;BME280;4386;51.236;6.742;2023-02-03T00:31:40;102075.38;;;10.51;83.90
8699;BME280;4386;51.236;6.742;2023-02-03T00:32:49;102067.53;;;10.50;83.75
8699;BME280;4386;51.236;6.742;2023-02-03T00:33:53;102077.19;;;10.51;83.79
8699;BME280;4386;51.236;6.742;2023-02-03T00:34:55;102070.09;;;10.51;83.73
8699;BME280;4386;51.236;6.742;2023-02-03T00:36:04;102056.84;;;10.51;83.72
8699;BME280;4386;51.236;6.742;2023-02-03T00:37:06;102053.31;;;10.51;83.80
8699;BME280;4386;51.236;6.742;2023-02-03T00:38:08;102047.09;;;10.52;83.59
8699;BME280;4386;51.236;6.742;2023-02-03T00:39:10;102049.00;;;10.50;83.89
8699;BME280;4386;51.236;6.742;2023-02-03T00:40:13;102042.81;;;10.49;83.56
8699;BME280;4386;51.236;6.742;2023-02-03T00:41:15;102042.81;;;10.49;83.71
8699;BME280;4386;51.236;6.742;2023-02-03T00:42:18;102040.19;;;10.49;83.59
8699;BME280;4386;51.236;6.742;2023-02-03T00:43:20;102041.03;;;10.50;83.58
8699;BME280;4386;51.236;6.742;2023-02-03T00:44:23;102034.78;;;10.51;83.49
8699;BME280;4386;51.236;6.742;2023-02-03T00:45:24;102032.97;;;10.51;83.54
8699;BME280;4386;51.236;6.742;2023-02-03T00:46:27;102041.78;;;10.52;83.37
8699;BME280;4386;51.236;6.742;2023-02-03T00:47:29;102045.31;;;10.52;83.65
8699;BME280;4386;51.236;6.742;2023-02-03T00:48:31;102040.94;;;10.51;83.28
8699;BME280;4386;51.236;6.742;2023-02-03T00:49:33;102050.59;;;10.52;83.60
8699;BME280;4386;51.236;6.742;2023-02-03T00:50:36;102047.09;;;10.52;83.64
8699;BME280;4386;51.236;6.742;2023-02-03T00:51:39;102046.16;;;10.53;83.40
8699;BME280;4386;51.236;6.742;2023-02-03T00:52:41;102045.31;;;10.52;83.42
8699;BME280;4386;51.236;6.742;2023-02-03T00:53:43;102040.84;;;10.53;83.49
8699;BME280;4386;51.236;6.742;2023-02-03T00:54:45;102050.59;;;10.52;83.44
8699;BME280;4386;51.236;6.742;2023-02-03T00:55:47;102048.72;;;10.54;83.50
8699;BME280;4386;51.236;6.742;2023-02-03T00:56:49;102046.16;;;10.53;83.30
8699;BME280;4386;51.236;6.742;2023-02-03T00:57:53;102047.03;;;10.53;83.46
8699;BME280;4386;51.236;6.742;2023-02-03T00:58:55;102054.00;;;10.54;83.27
8699;BME280;4386;51.236;6.742;2023-02-03T00:59:58;102060.28;;;10.53;83.40
8699;BME280;4386;51.236;6.742;2023-02-03T01:01:00;102051.47;;;10.53;83.35
8699;BME280;4386;51.236;6.742;2023-02-03T01:02:02;102050.59;;;10.52;83.42
8699;BME280;4386;51.236;6.742;2023-02-03T01:03:04;102050.59;;;10.52;83.34
8699;BME280;4386;51.236;6.742;2023-02-03T01:04:07;102058.38;;;10.55;83.33
8699;BME280;4386;51.236;6.742;2023-02-03T01:05:08;102054.00;;;10.54;83.27
8699;BME280;4386;51.236;6.742;2023-02-03T01:06:13;102060.16;;;10.55;83.37
8699;BME280;4386;51.236;6.742;2023-02-03T01:07:16;102061.03;;;10.55;83.23
8699;BME280;4386;51.236;6.742;2023-02-03T01:08:19;102068.97;;;10.55;83.20
8699;BME280;4386;51.236;6.742;2023-02-03T01:09:20;102065.47;;;10.55;83.18
8699;BME280;4386;51.236;6.742;2023-02-03T01:10:23;102071.69;;;10.54;83.31
8699;BME280;4386;51.236;6.742;2023-02-03T01:11:26;102084.13;;;10.53;83.13
8699;BME280;4386;51.236;6.742;2023-02-03T01:12:29;102084.13;;;10.53;82.93
8699;BME280;4386;51.236;6.742;2023-02-03T01:13:31;102087.72;;;10.52;83.01
8699;BME280;4386;51.236;6.742;2023-02-03T01:14:33;102080.69;;;10.51;83.18
8699;BME280;4386;51.236;6.742;2023-02-03T01:15:35;102087.72;;;10.52;83.05
8699;BME280;4386;51.236;6.742;2023-02-03T01:16:38;102092.16;;;10.52;83.00
8699;BME280;4386;51.236;6.742;2023-02-03T01:17:40;102093.00;;;10.52;83.07
8699;BME280;4386;51.236;6.742;2023-02-03T01:18:44;102099.19;;;10.53;82.99
8699;BME280;4386;51.236;6.742;2023-02-03T01:19:46;102108.91;;;10.52;83.07
8699;BME280;4386;51.236;6.742;2023-02-03T01:20:49;102104.47;;;10.53;83.04
8699;BME280;4386;51.236;6.742;2023-02-03T01:21:50;102106.16;;;10.54;82.94
8699;BME280;4386;51.236;6.742;2023-02-03T01:22:54;102107.03;;;10.54;82.95
8699;BME280;4386;51.236;6.742;2023-02-03T01:23:57;102109.66;;;10.54;83.04
8699;BME280;4386;51.236;6.742;2023-02-03T01:25:00;102111.47;;;10.54;83.10
8699;BME280;4386;51.236;6.742;2023-02-03T01:26:03;102104.38;;;10.54;83.08
8699;BME280;4386;51.236;6.742;2023-02-03T01:27:06;102095.56;;;10.54;83.10
8699;BME280;4386;51.236;6.742;2023-02-03T01:28:07;102099.06;;;10.54;83.05
8699;BME280;4386;51.236;6.742;2023-02-03T01:29:10;102094.63;;;10.55;82.91
8699;BME280;4386;51.236;6.742;2023-02-03T01:30:12;102098.13;;;10.55;82.96
8699;BME280;4386;51.236;6.742;2023-02-03T01:31:16;102098.06;;;10.57;83.08
8699;BME280;4386;51.236;6.742;2023-02-03T01:32:18;102094.56;;;10.56;82.79
8699;BME280;4386;51.236;6.742;2023-02-03T01:33:21;102103.38;;;10.57;82.99
8699;BME280;4386;51.236;6.742;2023-02-03T01:34:23;102104.19;;;10.57;82.93
8699;BME280;4386;51.236;6.742;2023-02-03T01:35:25;102105.06;;;10.58;82.95
8699;BME280;4386;51.236;6.742;2023-02-03T01:36:28;102099.00;;;10.56;82.89
8699;BME280;4386;51.236;6.742;2023-02-03T01:37:38;102102.50;;;10.56;82.93
8699;BME280;4386;51.236;6.742;2023-02-03T01:38:42;102101.66;;;10.56;82.91
8699;BME280;4386;51.236;6.742;2023-02-03T01:39:45;102099.00;;;10.56;82.93
8699;BME280;4386;51.236;6.742;2023-02-03T01:40:46;102103.38;;;10.57;82.94
8699;BME280;4386;51.236;6.742;2023-02-03T01:41:49;102100.78;;;10.55;82.74
8699;BME280;4386;51.236;6.742;2023-02-03T01:42:51;102103.44;;;10.55;82.89
8699;BME280;4386;51.236;6.742;2023-02-03T01:43:56;102108.75;;;10.55;82.99
8699;BME280;4386;51.236;6.742;2023-02-03T01:44:59;102110.47;;;10.56;82.95
8699;BME280;4386;51.236;6.742;2023-02-03T01:46:05;102108.75;;;10.55;82.70
8699;BME280;4386;51.236;6.742;2023-02-03T01:47:17;102114.97;;;10.54;82.80
8699;BME280;4386;51.236;6.742;2023-02-03T01:48:23;102104.38;;;10.54;82.81
8699;BME280;4386;51.236;6.742;2023-02-03T01:49:28;102112.31;;;10.54;82.62
8699;BME280;4386;51.236;6.742;2023-02-03T01:50:33;102112.31;;;10.54;82.84
8699;BME280;4386;51.236;6.742;2023-02-03T01:51:39;102107.03;;;10.54;82.73
8699;BME280;4386;51.236;6.742;2023-02-03T01:52:44;102102.59;;;10.55;82.81
8699;BME280;4386;51.236;6.742;2023-02-03T01:53:51;102105.16;;;10.56;82.92
8699;BME280;4386;51.236;6.742;2023-02-03T01:54:55;102106.03;;;10.57;82.85
8699;BME280;4386;51.236;6.742;2023-02-03T01:56:00;102105.16;;;10.56;82.59
8699;BME280;4386;51.236;6.742;2023-02-03T01:57:09;102090.13;;;10.57;82.79
8699;BME280;4386;51.236;6.742;2023-02-03T01:58:17;102083.00;;;10.57;82.69
8699;BME280;4386;51.236;6.742;2023-02-03T01:59:22;102077.69;;;10.57;82.71
8699;BME280;4386;51.236;6.742;2023-02-03T02:00:24;102089.16;;;10.58;82.77
8699;BME280;4386;51.236;6.742;2023-02-03T02:01:32;102090.00;;;10.58;82.87
8699;BME280;4386;51.236;6.742;2023-02-03T02:02:35;102101.47;;;10.59;82.77
8699;BME280;4386;51.236;6.742;2023-02-03T02:03:41;102105.00;;;10.59;82.65
8699;BME280;4386;51.236;6.742;2023-02-03T02:04:51;102097.97;;;10.58;82.56
8699;BME280;4386;51.236;6.742;2023-02-03T02:06:01;102104.13;;;10.59;82.59
8699;BME280;4386;51.236;6.742;2023-02-03T02:07:05;102114.63;;;10.60;82.64
8699;BME280;4386;51.236;6.742;2023-02-03T02:08:13;102115.59;;;10.59;82.53
8699;BME280;4386;51.236;6.742;2023-02-03T02:09:17;102111.22;;;10.58;82.51
8699;BME280;4386;51.236;6.742;2023-02-03T02:10:20;102113.88;;;10.58;82.54
8699;BME280;4386;51.236;6.742;2023-02-03T02:11:21;102120.91;;;10.59;82.54
8699;BME280;4386;51.236;6.742;2023-02-03T02:12:24;102110.28;;;10.59;82.55
8699;BME280;4386;51.236;6.742;2023-02-03T02:13:27;102114.72;;;10.59;82.66
8699;BME280;4386;51.236;6.742;2023-02-03T02:14:30;102102.34;;;10.59;82.46
8699;BME280;4386;51.236;6.742;2023-02-03T02:15:42;102099.69;;;10.59;82.53
8699;BME280;4386;51.236;6.742;2023-02-03T02:16:51;102093.41;;;10.60;82.27
8699;BME280;4386;51.236;6.742;2023-02-03T02:18:06;102088.13;;;10.60;82.66
8699;BME280;4386;51.236;6.742;2023-02-03T02:19:33;102071.47;;;10.58;82.30
8699;BME280;4386;51.236;6.742;2023-02-03T02:22:29;102074.22;;;10.57;82.41
8699;BME280;4386;51.236;6.742;2023-02-03T02:23:58;102068.91;;;10.57;82.57
8699;BME280;4386;51.236;6.742;2023-02-03T02:25:42;102068.91;;;10.57;82.50
8699;BME280;4386;51.236;6.742;2023-02-03T02:26:55;102068.91;;;10.57;82.43
8699;BME280;4386;51.236;6.742;2023-02-03T02:28:11;102063.59;;;10.57;82.43
8699;BME280;4386;51.236;6.742;2023-02-03T02:31:18;102055.72;;;10.55;82.49
8699;BME280;4386;51.236;6.742;2023-02-03T02:32:38;102066.34;;;10.55;82.41
8699;BME280;4386;51.236;6.742;2023-02-03T02:33:48;102056.59;;;10.56;82.47
8699;BME280;4386;51.236;6.742;2023-02-03T02:35:01;102068.06;;;10.56;82.38
8699;BME280;4386;51.236;6.742;2023-02-03T02:36:12;102061.88;;;10.56;82.18
8699;BME280;4386;51.236;6.742;2023-02-03T02:37:24;102070.69;;;10.56;82.37
8699;BME280;4386;51.236;6.742;2023-02-03T02:38:44;102065.41;;;10.56;82.38
8699;BME280;4386;51.236;6.742;2023-02-03T02:39:53;102059.13;;;10.57;82.38
8699;BME280;4386;51.236;6.742;2023-02-03T02:41:02;102059.13;;;10.57;82.36
8699;BME280;4386;51.236;6.742;2023-02-03T02:42:08;102060.97;;;10.57;82.44
8699;BME280;4386;51.236;6.742;2023-02-03T02:43:18;102053.84;;;10.57;82.19
8699;BME280;4386;51.236;6.742;2023-02-03T02:44:23;102063.50;;;10.58;82.29
8699;BME280;4386;51.236;6.742;2023-02-03T02:45:29;102055.56;;;10.58;82.23
8699;BME280;4386;51.236;6.742;2023-02-03T02:46:36;102058.19;;;10.58;82.25
8699;BME280;4386;51.236;6.742;2023-02-03T02:47:41;102059.13;;;10.57;82.11
8699;BME280;4386;51.236;6.742;2023-02-03T02:48:48;102052.91;;;10.58;82.06
8699;BME280;4386;51.236;6.742;2023-02-03T02:49:55;102060.84;;;10.58;82.14
8699;BME280;4386;51.236;6.742;2023-02-03T02:51:11;102056.41;;;10.59;82.17
8699;BME280;4386;51.236;6.742;2023-02-03T02:52:17;102061.72;;;10.59;82.05
8699;BME280;4386;51.236;6.742;2023-02-03T02:53:21;102059.06;;;10.59;82.10
8699;BME280;4386;51.236;6.742;2023-02-03T02:54:26;102062.56;;;10.59;82.05
8699;BME280;4386;51.236;6.742;2023-02-03T02:55:31;102061.59;;;10.60;81.92
8699;BME280;4386;51.236;6.742;2023-02-03T02:56:37;102063.44;;;10.60;82.03
8699;BME280;4386;51.236;6.742;2023-02-03T02:57:40;102063.44;;;10.60;81.89
8699;BME280;4386;51.236;6.742;2023-02-03T02:58:46;102066.91;;;10.60;81.97
8699;BME280;4386;51.236;6.742;2023-02-03T02:59:49;102060.84;;;10.58;82.07
8699;BME280;4386;51.236;6.742;2023-02-03T03:00:51;102046.66;;;10.59;82.00
8699;BME280;4386;51.236;6.742;2023-02-03T03:01:53;102049.31;;;10.59;81.89
8699;BME280;4386;51.236;6.742;2023-02-03T03:03:06;102036.06;;;10.59;81.98
8699;BME280;4386;51.236;6.742;2023-02-03T03:04:09;102043.06;;;10.60;81.77
8699;BME280;4386;51.236;6.742;2023-02-03T03:05:14;102043.91;;;10.61;82.03
8699;BME280;4386;51.236;6.742;2023-02-03T03:06:22;102035.09;;;10.60;81.88
8699;BME280;4386;51.236;6.742;2023-02-03T03:07:27;102036.06;;;10.59;81.79
8699;BME280;4386;51.236;6.742;2023-02-03T03:08:33;102021.84;;;10.60;81.81
8699;BME280;4386;51.236;6.742;2023-02-03T03:09:40;102021.94;;;10.59;81.74
8699;BME280;4386;51.236;6.742;2023-02-03T03:10:42;102022.03;;;10.57;81.67
8699;BME280;4386;51.236;6.742;2023-02-03T03:11:50;102023.75;;;10.58;81.76
8699;BME280;4386;51.236;6.742;2023-02-03T03:12:56;102023.75;;;10.58;81.66
8699;BME280;4386;51.236;6.742;2023-02-03T03:14:01;102026.41;;;10.58;81.66
8699;BME280;4386;51.236;6.742;2023-02-03T03:15:07;102026.41;;;10.58;81.77
8699;BME280;4386;51.236;6.742;2023-02-03T03:16:13;102033.59;;;10.56;81.59
8699;BME280;4386;51.236;6.742;2023-02-03T03:17:18;102037.94;;;10.57;81.49
8699;BME280;4386;51.236;6.742;2023-02-03T03:18:26;102037.09;;;10.57;81.61
8699;BME280;4386;51.236;6.742;2023-02-03T03:19:32;102046.84;;;10.56;81.45
8699;BME280;4386;51.236;6.742;2023-02-03T03:20:37;102046.06;;;10.54;81.69
8699;BME280;4386;51.236;6.742;2023-02-03T03:21:48;102052.22;;;10.55;81.63
8699;BME280;4386;51.236;6.742;2023-02-03T03:22:55;102052.22;;;10.55;81.68
8699;BME280;4386;51.236;6.742;2023-02-03T03:24:00;102052.31;;;10.53;81.62
8699;BME280;4386;51.236;6.742;2023-02-03T03:25:10;102061.09;;;10.54;81.45
8699;BME280;4386;51.236;6.742;2023-02-03T03:26:18;102058.44;;;10.54;81.72
8699;BME280;4386;51.236;6.742;2023-02-03T03:27:22;102058.44;;;10.54;81.58
8699;BME280;4386;51.236;6.742;2023-02-03T03:28:29;102057.63;;;10.53;81.61
8699;BME280;4386;51.236;6.742;2023-02-03T03:29:37;102067.38;;;10.53;81.67
8699;BME280;4386;51.236;6.742;2023-02-03T03:30:41;102065.66;;;10.52;81.55
8699;BME280;4386;51.236;6.742;2023-02-03T03:31:43;102061.22;;;10.52;81.59
8699;BME280;4386;51.236;6.742;2023-02-03T03:32:47;102061.09;;;10.54;81.53
8699;BME280;4386;51.236;6.742;2023-02-03T03:33:51;102055.81;;;10.54;81.47
8699;BME280;4386;51.236;6.742;2023-02-03T03:35:04;102057.63;;;10.53;81.58
8699;BME280;4386;51.236;6.742;2023-02-03T03:36:13;102048.81;;;10.53;81.58
8699;BME280;4386;51.236;6.742;2023-02-03T03:37:18;102055.91;;;10.52;81.67
8699;BME280;4386;51.236;6.742;2023-02-03T03:38:24;102057.63;;;10.53;81.35
8699;BME280;4386;51.236;6.742;2023-02-03T03:39:34;102048.88;;;10.51;81.39
8699;BME280;4386;51.236;6.742;2023-02-03T03:40:40;102047.94;;;10.52;81.54
8699;BME280;4386;51.236;6.742;2023-02-03T03:41:50;102047.94;;;10.52;81.49
8699;BME280;4386;51.236;6.742;2023-02-03T03:42:58;102040.00;;;10.52;81.60
8699;BME280;4386;51.236;6.742;2023-02-03T03:44:03;102047.94;;;10.52;81.56
8699;BME280;4386;51.236;6.742;2023-02-03T03:45:12;102040.00;;;10.52;81.58
8699;BME280;4386;51.236;6.742;2023-02-03T03:46:20;102050.59;;;10.52;81.49
8699;BME280;4386;51.236;6.742;2023-02-03T03:47:28;102045.31;;;10.52;81.71
8699;BME280;4386;51.236;6.742;2023-02-03T03:48:35;102050.59;;;10.52;81.68
8699;BME280;4386;51.236;6.742;2023-02-03T03:49:44;102054.88;;;10.55;81.43
8699;BME280;4386;51.236;6.742;2023-02-03T03:50:51;102069.06;;;10.54;81.56
8699;BME280;4386;51.236;6.742;2023-02-03T03:51:58;102062.94;;;10.53;81.54
8699;BME280;4386;51.236;6.742;2023-02-03T03:53:03;102059.31;;;10.54;81.46
8699;BME280;4386;51.236;6.742;2023-02-03T03:54:08;102056.66;;;10.54;81.57
8699;BME280;4386;51.236;6.742;2023-02-03T03:55:13;102059.31;;;10.54;81.53
8699;BME280;4386;51.236;6.742;2023-02-03T03:56:20;102056.66;;;10.54;81.57
8699;BME280;4386;51.236;6.742;2023-02-03T03:57:26;102051.34;;;10.54;81.52
8699;BME280;4386;51.236;6.742;2023-02-03T03:58:31;102046.06;;;10.54;81.40
8699;BME280;4386;51.236;6.742;2023-02-03T03:59:36;102030.09;;;10.56;81.41
8699;BME280;4386;51.236;6.742;2023-02-03T04:00:40;102030.16;;;10.54;81.43
8699;BME280;4386;51.236;6.742;2023-02-03T04:01:45;102032.72;;;10.56;81.10
8699;BME280;4386;51.236;6.742;2023-02-03T04:02:50;102036.25;;;10.56;81.29
8699;BME280;4386;51.236;6.742;2023-02-03T04:03:56;102034.44;;;10.57;81.36
8699;BME280;4386;51.236;6.742;2023-02-03T04:05:00;102035.28;;;10.57;81.43
8699;BME280;4386;51.236;6.742;2023-02-03T04:06:05;102027.50;;;10.54;81.36
8699;BME280;4386;51.236;6.742;2023-02-03T04:07:06;102030.09;;;10.56;81.32
8699;BME280;4386;51.236;6.742;2023-02-03T04:08:09;102034.44;;;10.57;81.33
8699;BME280;4386;51.236;6.742;2023-02-03T04:09:10;102029.97;;;10.57;81.25
8699;BME280;4386;51.236;6.742;2023-02-03T04:10:20;102032.63;;;10.57;81.16
8699;BME280;4386;51.236;6.742;2023-02-03T04:11:23;102042.41;;;10.57;81.21
8699;BME280;4386;51.236;6.742;2023-02-03T04:12:43;102043.22;;;10.57;81.33
8699;BME280;4386;51.236;6.742;2023-02-03T04:13:46;102035.28;;;10.57;81.20
8699;BME280;4386;51.236;6.742;2023-02-03T04:14:48;102036.25;;;10.56;81.51
8699;BME280;4386;51.236;6.742;2023-02-03T04:15:51;102043.22;;;10.57;81.16
8699;BME280;4386;51.236;6.742;2023-02-03T04:16:52;102044.94;;;10.58;81.34
8699;BME280;4386;51.236;6.742;2023-02-03T04:17:55;102052.91;;;10.58;81.19
8699;BME280;4386;51.236;6.742;2023-02-03T04:19:04;102049.31;;;10.59;81.18
8699;BME280;4386;51.236;6.742;2023-02-03T04:20:11;102050.25;;;10.58;81.19
8699;BME280;4386;51.236;6.742;2023-02-03T04:21:13;102051.97;;;10.59;81.13
8699;BME280;4386;51.236;6.742;2023-02-03T04:22:16;102051.88;;;10.61;81.03
8699;BME280;4386;51.236;6.742;2023-02-03T04:23:17;102054.53;;;10.61;80.93
8699;BME280;4386;51.236;6.742;2023-02-03T04:24:20;102052.72;;;10.61;81.04
8699;BME280;4386;51.236;6.742;2023-02-03T04:25:22;102049.16;;;10.62;81.06
8699;BME280;4386;51.236;6.742;2023-02-03T04:26:24;102049.16;;;10.62;80.78
8699;BME280;4386;51.236;6.742;2023-02-03T04:27:26;102049.16;;;10.62;80.73
8699;BME280;4386;51.236;6.742;2023-02-03T04:28:29;102053.59;;;10.62;80.63
8699;BME280;4386;51.236;6.742;2023-02-03T04:29:30;102050.06;;;10.61;80.63
8699;BME280;4386;51.236;6.742;2023-02-03T04:30:33;102047.41;;;10.61;80.74
8699;BME280;4386;51.236;6.742;2023-02-03T04:31:35;102057.09;;;10.62;80.84
8699;BME280;4386;51.236;6.742;2023-02-03T04:32:38;102051.78;;;10.62;80.52
8699;BME280;4386;51.236;6.742;2023-02-03T04:33:40;102054.44;;;10.62;80.63
8699;BME280;4386;51.236;6.742;2023-02-03T04:34:43;102057.97;;;10.63;80.48
8699;BME280;4386;51.236;6.742;2023-02-03T04:35:46;102059.75;;;10.62;80.56
8699;BME280;4386;51.236;6.742;2023-02-03T04:36:48;102061.47;;;10.63;80.60
8699;BME280;4386;51.236;6.742;2023-02-03T04:37:51;102063.16;;;10.64;80.41
8699;BME280;4386;51.236;6.742;2023-02-03T04:38:52;102057.00;;;10.64;80.57
8699;BME280;4386;51.236;6.742;2023-02-03T04:39:55;102052.56;;;10.64;80.41
8699;BME280;4386;51.236;6.742;2023-02-03T04:40:57;102051.63;;;10.65;80.46
8699;BME280;4386;51.236;6.742;2023-02-03T04:42:00;102038.44;;;10.64;80.28
8699;BME280;4386;51.236;6.742;2023-02-03T04:43:06;102057.84;;;10.64;80.22
8699;BME280;4386;51.236;6.742;2023-02-03T04:44:09;102060.50;;;10.64;80.21
8699;BME280;4386;51.236;6.742;2023-02-03T04:45:11;102051.78;;;10.62;80.25
8699;BME280;4386;51.236;6.742;2023-02-03T04:46:14;102049.03;;;10.64;80.34
8699;BME280;4386;51.236;6.742;2023-02-03T04:47:16;102053.50;;;10.63;80.28
8699;BME280;4386;51.236;6.742;2023-02-03T04:48:19;102044.69;;;10.63;80.26
8699;BME280;4386;51.236;6.742;2023-02-03T04:49:20;102048.22;;;10.63;80.22
8699;BME280;4386;51.236;6.742;2023-02-03T04:50:23;102041.19;;;10.62;80.17
8699;BME280;4386;51.236;6.742;2023-02-03T04:51:26;102035.88;;;10.62;80.15
8699;BME280;4386;51.236;6.742;2023-02-03T04:52:29;102037.69;;;10.62;79.98
8699;BME280;4386;51.236;6.742;2023-02-03T04:53:31;102033.25;;;10.62;80.08
8699;BME280;4386;51.236;6.742;2023-02-03T04:54:34;102031.53;;;10.61;80.11
8699;BME280;4386;51.236;6.742;2023-02-03T04:55:36;102028.88;;;10.61;79.91
8699;BME280;4386;51.236;6.742;2023-02-03T04:56:38;102035.03;;;10.62;80.14
8699;BME280;4386;51.236;6.742;2023-02-03T04:57:40;102032.38;;;10.62;80.10
8699;BME280;4386;51.236;6.742;2023-02-03T04:58:43;102032.31;;;10.63;80.11
8699;BME280;4386;51.236;6.742;2023-02-03T04:59:54;102019.06;;;10.63;80.07
8699;BME280;4386;51.236;6.742;2023-02-03T05:00:57;102016.41;;;10.63;80.13
8699;BME280;4386;51.236;6.742;2023-02-03T05:02:00;102012.88;;;10.63;80.09
8699;BME280;4386;51.236;6.742;2023-02-03T05:03:03;102014.69;;;10.62;80.07
8699;BME280;4386;51.236;6.742;2023-02-03T05:04:05;102027.84;;;10.64;80.08
8699;BME280;4386;51.236;6.742;2023-02-03T05:05:07;102021.78;;;10.62;80.12
8699;BME280;4386;51.236;6.742;2023-02-03T05:06:09;102025.28;;;10.62;80.03
8699;BME280;4386;51.236;6.742;2023-02-03T05:07:13;102027.00;;;10.63;80.01
8699;BME280;4386;51.236;6.742;2023-02-03T05:08:14;102029.66;;;10.63;80.03
8699;BME280;4386;51.236;6.742;2023-02-03T05:09:26;102023.50;;;10.63;80.01
8699;BME280;4386;51.236;6.742;2023-02-03T05:10:29;102012.97;;;10.61;79.94
8699;BME280;4386;51.236;6.742;2023-02-03T05:11:31;102015.53;;;10.63;80.02
8699;BME280;4386;51.236;6.742;2023-02-03T05:12:33;102021.78;;;10.62;79.99
8699;BME280;4386;51.236;6.742;2023-02-03T05:13:35;102021.78;;;10.62;80.06
8699;BME280;4386;51.236;6.742;2023-02-03T05:14:37;102018.25;;;10.61;79.75
8699;BME280;4386;51.236;6.742;2023-02-03T05:15:39;102018.25;;;10.61;80.02
8699;BME280;4386;51.236;6.742;2023-02-03T05:16:41;102014.69;;;10.62;79.78
8699;BME280;4386;51.236;6.742;2023-02-03T05:17:43;102012.97;;;10.61;79.85
8699;BME280;4386;51.236;6.742;2023-02-03T05:18:45;102023.56;;;10.61;79.83
8699;BME280;4386;51.236;6.742;2023-02-03T05:19:47;102015.53;;;10.63;79.86
8699;BME280;4386;51.236;6.742;2023-02-03T05:20:50;102016.53;;;10.60;79.71
8699;BME280;4386;51.236;6.742;2023-02-03T05:21:51;102018.25;;;10.61;79.74
8699;BME280;4386;51.236;6.742;2023-02-03T05:22:56;102016.53;;;10.60;79.64
8699;BME280;4386;51.236;6.742;2023-02-03T05:23:58;102005.94;;;10.60;79.87
8699;BME280;4386;51.236;6.742;2023-02-03T05:25:07;102009.56;;;10.59;79.89
8699;BME280;4386;51.236;6.742;2023-02-03T05:26:09;102011.25;;;10.60;79.67
8699;BME280;4386;51.236;6.742;2023-02-03T05:27:12;102007.75;;;10.60;79.75
8699;BME280;4386;51.236;6.742;2023-02-03T05:28:14;101995.34;;;10.60;79.71
8699;BME280;4386;51.236;6.742;2023-02-03T05:29:16;102000.63;;;10.60;79.58
8699;BME280;4386;51.236;6.742;2023-02-03T05:30:18;102005.94;;;10.60;79.73
8699;BME280;4386;51.236;6.742;2023-02-03T05:31:20;102005.00;;;10.61;79.95
8699;BME280;4386;51.236;6.742;2023-02-03T05:32:22;102005.00;;;10.61;79.70
8699;BME280;4386;51.236;6.742;2023-02-03T05:33:25;102009.38;;;10.62;79.81
8699;BME280;4386;51.236;6.742;2023-02-03T05:34:27;102006.81;;;10.61;79.64
8699;BME280;4386;51.236;6.742;2023-02-03T05:35:29;102011.25;;;10.60;79.67
8699;BME280;4386;51.236;6.742;2023-02-03T05:36:32;102007.66;;;10.61;79.67
8699;BME280;4386;51.236;6.742;2023-02-03T05:37:33;102014.69;;;10.62;79.70
8699;BME280;4386;51.236;6.742;2023-02-03T05:38:37;102011.16;;;10.62;79.79
8699;BME280;4386;51.236;6.742;2023-02-03T05:39:39;102010.31;;;10.61;79.46
8699;BME280;4386;51.236;6.742;2023-02-03T05:40:41;102018.19;;;10.63;79.52
8699;BME280;4386;51.236;6.742;2023-02-03T05:42:01;102017.34;;;10.62;79.46
8699;BME280;4386;51.236;6.742;2023-02-03T05:43:03;102013.91;;;10.60;79.50
8699;BME280;4386;51.236;6.742;2023-02-03T05:44:05;102010.31;;;10.61;79.58
8699;BME280;4386;51.236;6.742;2023-02-03T05:45:18;102012.97;;;10.61;79.51
8699;BME280;4386;51.236;6.742;2023-02-03T05:46:20;102021.84;;;10.60;79.37
8699;BME280;4386;51.236;6.742;2023-02-03T05:47:23;102019.97;;;10.62;79.45
8699;BME280;4386;51.236;6.742;2023-02-03T05:48:24;102029.72;;;10.62;79.40
8699;BME280;4386;51.236;6.742;2023-02-03T05:49:27;102035.03;;;10.62;79.33
8699;BME280;4386;51.236;6.742;2023-02-03T05:50:30;102034.97;;;10.63;79.30
8699;BME280;4386;51.236;6.742;2023-02-03T05:51:33;102036.81;;;10.61;79.40